Time;durP1;ratioP1;P1;durP2;ratioP2;P2;SDS_P1;SDS_P2;PMS_P1;PMS_P2;Temp;Humidity;BMP_temperature;BMP_pressure;BME280_temperature;BME280_humidity;BME280_pressure;Samples;Min_cycle;Max_cycle;Signal;HPM_P1;HPM_P2
2022/07/03 00:01:00;;;;;;;3.33;2.03;;;;;;;18.77;64.89;101831.63;4951365;28;20217;-74
2022/07/03 00:03:26;;;;;;;1.93;1.73;;;;;;;18.77;64.32;101840.28;4950558;28;20220;-75
2022/07/03 00:05:52;;;;;;;2.00;1.80;;;;;;;18.77;64.54;101840.28;4950757;29;20211;-75
2022/07/03 00:08:17;;;;;;;2.97;2.10;;;;;;;18.80;64.01;101839.44;4950397;28;20200;-75
2022/07/03 00:10:43;;;;;;;2.27;1.70;;;;;;;18.80;64.33;101834.25;4951041;28;20197;-76
2022/07/03 00:13:08;;;;;;;2.40;1.90;;;;;;;18.79;64.22;101824.72;4950660;28;20185;-74
2022/07/03 00:15:34;;;;;;;3.97;2.00;;;;;;;18.77;64.20;101826.44;4950411;28;20535;-74
2022/07/03 00:17:59;;;;;;;4.43;1.80;;;;;;;18.78;63.89;101829.03;4950976;28;20533;-74
2022/07/03 00:20:30;;;;;;;2.30;1.70;;;;;;;18.77;64.20;101827.31;4950349;28;20196;-74
2022/07/03 00:22:59;;;;;;;1.80;1.70;;;;;;;18.75;63.96;101823.00;4950902;28;20445;-74
2022/07/03 00:25:25;;;;;;;4.80;1.90;;;;;;;18.76;64.27;101819.53;4953896;28;20597;-75
2022/07/03 00:27:51;;;;;;;2.03;1.90;;;;;;;18.75;64.10;101816.03;4954972;28;20209;-74
2022/07/03 00:30:17;;;;;;;3.70;2.30;;;;;;;18.75;64.65;101826.44;4952922;29;20220;-74
2022/07/03 00:32:43;;;;;;;3.93;1.70;;;;;;;18.74;64.44;101822.09;4985795;28;20199;-75
2022/07/03 00:35:09;;;;;;;2.50;1.80;;;;;;;18.75;64.37;101816.03;4969466;28;20189;-75
2022/07/03 00:37:34;;;;;;;2.30;1.60;;;;;;;18.77;63.64;101816.06;4954181;28;20862;-74
2022/07/03 00:40:00;;;;;;;1.97;1.77;;;;;;;18.77;64.43;101818.66;4954666;29;20191;-74
2022/07/03 00:42:28;;;;;;;3.23;2.13;;;;;;;18.76;64.66;101816.94;4984931;28;20209;-75
2022/07/03 00:44:56;;;;;;;2.90;2.17;;;;;;;18.70;65.44;101807.38;4954347;28;20216;-75
2022/07/03 00:47:24;;;;;;;3.07;2.00;;;;;;;18.74;63.60;101806.53;4953943;28;20283;-74
2022/07/03 00:49:52;;;;;;;4.97;1.97;;;;;;;18.72;64.64;101800.50;4954558;28;20189;-74
2022/07/03 00:52:19;;;;;;;3.13;2.00;;;;;;;18.72;64.76;101797.03;4954491;28;20185;-75
2022/07/03 00:54:52;;;;;;;2.33;2.07;;;;;;;18.73;63.82;101803.94;4954038;28;20186;-74
2022/07/03 00:57:19;;;;;;;3.93;1.90;;;;;;;18.71;64.90;101801.38;4954944;28;20220;-74
2022/07/03 00:59:45;;;;;;;2.57;2.03;;;;;;;18.66;65.95;101800.47;4973360;28;20189;-75
2022/07/03 01:02:38;;;;;;;2.63;2.20;;;;;;;18.64;65.54;101796.13;4964343;28;20244;-75
2022/07/03 01:05:24;;;;;;;3.00;1.80;;;;;;;18.62;65.48;101803.94;4953581;28;20208;-74
2022/07/03 01:08:43;;;;;;;1.93;1.80;;;;;;;18.56;66.70;101793.53;4954746;28;20216;-75
2022/07/03 01:11:28;;;;;;;2.30;2.10;;;;;;;18.55;65.56;101793.50;4924465;29;20194;-75
2022/07/03 01:14:22;;;;;;;4.83;2.33;;;;;;;18.54;65.57;101778.81;4933249;29;20194;-74
2022/07/03 01:16:54;;;;;;;3.43;2.07;;;;;;;18.47;65.39;101774.50;4951594;28;20266;-75
2022/07/03 01:19:42;;;;;;;3.73;2.27;;;;;;;18.44;65.61;101772.75;4954501;28;20257;-74
2022/07/03 01:22:23;;;;;;;2.60;2.30;;;;;;;18.40;66.09;101776.22;4984983;28;20193;-75
2022/07/03 01:25:10;;;;;;;2.90;2.00;;;;;;;18.40;65.00;101770.13;4935312;29;20543;-74
2022/07/03 01:28:00;;;;;;;2.23;2.00;;;;;;;18.38;65.41;101767.53;4935064;29;20577;-75
2022/07/03 01:30:29;;;;;;;3.60;2.10;;;;;;;18.37;65.79;101765.81;4935544;29;20196;-75
2022/07/03 01:33:18;;;;;;;2.37;2.10;;;;;;;18.35;66.32;101766.69;4934895;29;20719;-75
2022/07/03 01:36:06;;;;;;;2.00;1.87;;;;;;;18.28;67.06;101765.75;4934875;29;20531;-75
2022/07/03 01:38:36;;;;;;;4.93;2.17;;;;;;;18.28;66.89;101764.91;4951379;28;20646;-74
2022/07/03 01:41:04;;;;;;;3.30;2.10;;;;;;;18.22;67.08;101755.38;4954593;28;20588;-75
2022/07/03 01:43:38;;;;;;;3.67;2.40;;;;;;;18.19;67.82;101755.34;4984546;28;20636;-75
2022/07/03 01:46:04;;;;;;;3.77;2.13;;;;;;;18.20;66.94;101751.88;4953754;28;20192;-75
2022/07/03 01:48:32;;;;;;;2.10;1.90;;;;;;;18.19;66.75;101747.56;4953958;28;20799;-74
2022/07/03 01:50:59;;;;;;;2.30;2.10;;;;;;;18.15;67.39;101744.97;4984324;28;20224;-75
2022/07/03 01:53:27;;;;;;;3.10;2.10;;;;;;;18.07;67.97;101736.31;4953937;29;20574;-75
2022/07/03 01:56:02;;;;;;;2.20;2.00;;;;;;;18.01;67.64;101744.91;4952774;28;20193;-75
2022/07/03 01:58:27;;;;;;;2.37;2.17;;;;;;;17.98;68.04;101734.56;4953685;28;20641;-75
2022/07/03 02:01:20;;;;;;;6.27;2.33;;;;;;;17.98;67.41;101734.56;4951735;28;20292;-75
2022/07/03 02:04:15;;;;;;;2.30;2.10;;;;;;;17.93;67.82;101740.56;4953630;28;20221;-75
2022/07/03 02:06:49;;;;;;;2.20;2.00;;;;;;;17.92;67.57;101738.84;4967356;28;20232;-75
2022/07/03 02:09:21;;;;;;;2.77;2.03;;;;;;;17.88;67.20;101734.50;4953899;28;20192;-75
2022/07/03 02:11:47;;;;;;;3.40;2.27;;;;;;;17.88;67.85;101737.97;4952864;29;20200;-75
2022/07/03 02:14:14;;;;;;;3.30;2.30;;;;;;;17.77;68.97;101728.44;4955995;28;20181;-75
2022/07/03 02:17:18;;;;;;;2.77;2.07;;;;;;;17.74;68.08;101726.66;4956800;28;20220;-75
2022/07/03 02:19:59;;;;;;;2.10;2.00;;;;;;;17.75;68.73;101717.19;4934133;29;20197;-75
2022/07/03 02:22:32;;;;;;;2.40;2.20;;;;;;;17.69;68.51;101720.59;4934230;29;21049;-74
2022/07/03 02:25:09;;;;;;;3.50;2.30;;;;;;;17.67;68.64;101721.44;4949866;28;20225;-75
2022/07/03 02:27:47;;;;;;;2.57;2.13;;;;;;;17.68;68.27;101721.47;4938875;28;20216;-74
2022/07/03 02:30:13;;;;;;;2.63;1.90;;;;;;;17.59;69.14;101721.41;4953069;28;20184;-74
2022/07/03 02:32:49;;;;;;;2.20;2.10;;;;;;;17.62;68.30;101712.78;4953428;28;20173;-74
2022/07/03 02:35:25;;;;;;;2.20;2.00;;;;;;;17.63;68.52;101715.41;4949076;29;20283;-74
2022/07/03 02:38:07;;;;;;;3.53;2.40;;;;;;;17.62;68.17;101713.66;4953138;28;20228;-74
2022/07/03 02:40:47;;;;;;;2.60;2.37;;;;;;;17.58;68.95;101716.22;4952736;28;20197;-74
2022/07/03 02:43:23;;;;;;;3.57;2.20;;;;;;;17.59;69.13;101717.97;4953081;29;20239;-74
2022/07/03 02:46:48;;;;;;;3.30;2.10;;;;;;;17.58;68.97;101716.22;4983528;28;20324;-76
2022/07/03 02:48:54;;;;;;;2.40;2.17;;;;;;;17.51;69.37;101719.66;4952898;29;20312;-76
2022/07/03 02:51:29;;;;;;;3.87;2.40;;;;;;;17.45;69.91;101724.81;4967161;28;20205;-76
2022/07/03 02:54:08;;;;;;;3.03;2.17;;;;;;;17.43;70.46;101729.09;4952866;28;20197;-77
2022/07/03 02:56:44;;;;;;;2.30;2.10;;;;;;;17.41;70.13;101712.69;4950463;28;20216;-75
2022/07/03 02:59:39;;;;;;;2.33;2.07;;;;;;;17.42;69.95;101720.47;4939755;29;20200;-75
2022/07/03 03:02:37;;;;;;;4.27;2.50;;;;;;;17.41;70.27;101720.47;4952087;28;20268;-75
2022/07/03 03:05:09;;;;;;;2.47;2.10;;;;;;;17.34;70.92;101708.28;4951138;29;20225;-76
2022/07/03 03:07:57;;;;;;;2.63;2.43;;;;;;;17.34;70.90;101710.88;4952365;29;20212;-76
2022/07/03 03:10:22;;;;;;;4.13;2.43;;;;;;;17.33;70.66;101715.22;4952119;28;20177;-76
2022/07/03 03:13:03;;;;;;;2.53;2.30;;;;;;;17.34;70.77;101713.47;4952238;28;20647;-74
2022/07/03 03:15:30;;;;;;;3.40;2.50;;;;;;;17.33;70.47;101717.81;4951636;28;20177;-75
2022/07/03 03:18:01;;;;;;;2.30;2.10;;;;;;;17.32;71.25;101715.19;4961065;28;20209;-74
2022/07/03 03:20:30;;;;;;;2.50;2.10;;;;;;;17.27;71.82;101716.91;4951804;28;20197;-74
2022/07/03 03:23:08;;;;;;;2.63;2.17;;;;;;;17.26;71.35;101717.72;4952280;28;20232;-76
2022/07/03 03:25:33;;;;;;;3.70;2.37;;;;;;;17.26;70.76;101716.03;4950388;28;20189;-75
2022/07/03 03:28:00;;;;;;;3.33;2.40;;;;;;;17.24;71.00;101719.47;4952160;28;20208;-76
2022/07/03 03:30:26;;;;;;;3.77;2.70;;;;;;;17.18;72.43;101717.69;4982758;28;21083;-76
2022/07/03 03:32:51;;;;;;;3.07;2.77;;;;;;;17.12;72.82;101709.00;4952249;28;20196;-75
2022/07/03 03:35:17;;;;;;;2.43;2.23;;;;;;;17.13;72.49;101715.94;4951991;28;20272;-76
2022/07/03 03:37:44;;;;;;;4.07;2.20;;;;;;;17.16;71.87;101703.88;4951428;28;20213;-75
2022/07/03 03:40:11;;;;;;;3.90;2.40;;;;;;;17.20;71.42;101709.94;4952667;28;20213;-75
2022/07/03 03:42:37;;;;;;;3.07;2.47;;;;;;;17.20;71.33;101697.88;4951568;28;20260;-76
2022/07/03 03:45:02;;;;;;;3.27;2.90;;;;;;;17.23;70.79;101695.28;4951830;28;20208;-75
2022/07/03 03:47:28;;;;;;;3.27;1.90;;;;;;;17.20;71.50;101694.41;4982157;28;20205;-75
2022/07/03 03:49:54;;;;;;;2.37;2.23;;;;;;;17.16;71.54;101695.22;4982748;28;20189;-75
2022/07/03 03:52:19;;;;;;;2.70;2.30;;;;;;;17.14;71.75;101694.38;4951885;28;20677;-76
2022/07/03 03:54:45;;;;;;;2.80;2.60;;;;;;;17.14;71.26;101694.38;4950970;28;20197;-76
2022/07/03 03:57:24;;;;;;;3.30;2.20;;;;;;;17.13;71.28;101683.13;4951750;29;20237;-75
2022/07/03 03:59:50;;;;;;;3.43;2.47;;;;;;;17.13;70.81;101690.06;4946785;29;20268;-76
2022/07/03 04:02:17;;;;;;;2.63;2.43;;;;;;;17.14;70.88;101684.03;4942911;28;20185;-76
2022/07/03 04:04:43;;;;;;;2.80;2.37;;;;;;;17.19;70.32;101687.50;4951140;28;20272;-75
2022/07/03 04:07:09;;;;;;;4.03;2.50;;;;;;;17.20;70.91;101686.63;4951373;28;20702;-74
2022/07/03 04:09:34;;;;;;;2.60;2.40;;;;;;;17.20;71.35;101686.63;4950757;28;20191;-75
2022/07/03 04:12:00;;;;;;;2.53;2.33;;;;;;;17.20;70.57;101687.50;4951328;28;20610;-75
2022/07/03 04:14:26;;;;;;;3.47;2.30;;;;;;;17.16;71.89;101690.06;4957486;28;20189;-75
2022/07/03 04:16:52;;;;;;;5.10;2.30;;;;;;;17.17;72.07;101684.91;4950863;28;20293;-75
2022/07/03 04:19:17;;;;;;;2.37;2.17;;;;;;;17.18;71.98;101683.19;4951501;28;20681;-75
2022/07/03 04:21:42;;;;;;;2.40;2.20;;;;;;;17.16;72.18;101679.69;4950894;28;20193;-75
2022/07/03 04:24:08;;;;;;;6.03;2.50;;;;;;;17.19;71.72;101685.78;4951032;28;20224;-75
2022/07/03 04:26:34;;;;;;;4.90;2.50;;;;;;;17.19;72.21;101685.78;4935677;28;20221;-75
2022/07/03 04:28:59;;;;;;;2.83;2.63;;;;;;;17.19;72.54;101680.59;4934674;29;20197;-75
2022/07/03 04:31:25;;;;;;;2.50;2.30;;;;;;;17.26;71.50;101679.78;4951384;28;20662;-74
2022/07/03 04:33:50;;;;;;;2.80;2.43;;;;;;;17.36;70.64;101683.28;4950861;28;20213;-75
2022/07/03 04:36:16;;;;;;;3.00;2.43;;;;;;;17.42;70.54;101673.00;4951021;28;20263;-75
2022/07/03 04:38:42;;;;;;;2.83;2.43;;;;;;;17.49;70.09;101674.72;4981573;28;20193;-75
2022/07/03 04:41:08;;;;;;;2.50;2.30;;;;;;;17.53;70.33;101679.06;4951216;28;20185;-75
2022/07/03 04:43:34;;;;;;;2.80;2.50;;;;;;;17.56;70.84;101674.78;4950748;28;20842;-75
2022/07/03 04:45:59;;;;;;;4.07;2.70;;;;;;;17.50;71.40;101676.50;4950777;28;20209;-75
2022/07/03 04:48:27;;;;;;;4.37;2.40;;;;;;;17.53;70.58;101671.31;4951129;29;20180;-75
2022/07/03 04:50:52;;;;;;;4.07;2.30;;;;;;;17.66;69.58;101675.69;4950579;28;20563;-75
2022/07/03 04:53:18;;;;;;;3.47;2.50;;;;;;;17.79;68.91;101678.34;4951342;29;20248;-75
2022/07/03 04:55:43;;;;;;;5.13;2.40;;;;;;;17.85;68.95;101670.56;4950625;29;20233;-75
2022/07/03 04:58:09;;;;;;;4.00;2.60;;;;;;;17.89;68.62;101666.25;4958983;28;20248;-75
2022/07/03 05:00:34;;;;;;;3.50;2.47;;;;;;;17.86;69.11;101668.81;4969944;28;20177;-75
2022/07/03 05:03:00;;;;;;;3.13;2.37;;;;;;;17.98;69.08;101661.97;4970368;28;20686;-75
2022/07/03 05:05:25;;;;;;;2.63;2.43;;;;;;;18.19;68.71;101664.59;4970089;28;20263;-75
2022/07/03 05:07:51;;;;;;;2.83;2.13;;;;;;;18.42;66.97;101662.09;4969822;28;20631;-74
2022/07/03 05:10:16;;;;;;;3.10;2.63;;;;;;;18.64;67.61;101668.97;4971764;28;20713;-74
2022/07/03 05:12:42;;;;;;;2.20;2.00;;;;;;;18.79;66.34;101671.59;4973597;28;20196;-75
2022/07/03 05:15:08;;;;;;;2.50;2.30;;;;;;;18.98;65.20;101657.72;4973769;28;20194;-74
2022/07/03 05:17:33;;;;;;;3.00;2.33;;;;;;;19.12;64.79;101658.56;4971359;28;20213;-75
2022/07/03 05:22:43;;;;;;;2.40;2.10;;;;;;;19.12;64.74;101656.81;4954234;29;20221;-75
2022/07/03 05:25:08;;;;;;;3.20;2.20;;;;;;;19.31;63.92;101655.94;4954351;28;20195;-75
2022/07/03 05:27:37;;;;;;;2.33;2.13;;;;;;;19.51;63.36;101659.34;4968810;28;20216;-74
2022/07/03 05:30:03;;;;;;;3.83;2.40;;;;;;;19.56;62.94;101652.38;4959507;28;20199;-75
2022/07/03 05:32:29;;;;;;;2.30;2.10;;;;;;;19.56;63.22;101661.91;4973577;28;20239;-74
2022/07/03 05:34:54;;;;;;;2.93;2.60;;;;;;;19.72;62.98;101653.19;4972710;28;20219;-76
2022/07/03 05:37:19;;;;;;;2.90;2.30;;;;;;;19.86;62.72;101656.56;4973373;28;20212;-74
2022/07/03 05:39:45;;;;;;;2.50;2.30;;;;;;;20.01;62.25;101654.75;4972948;28;20191;-74
2022/07/03 05:42:10;;;;;;;3.73;2.37;;;;;;;20.01;61.30;101657.34;4973196;28;20623;-74
2022/07/03 05:44:36;;;;;;;2.53;2.20;;;;;;;20.15;61.40;101657.28;4973352;28;20191;-75
2022/07/03 05:47:01;;;;;;;3.10;2.40;;;;;;;20.19;60.75;101659.00;4972501;28;20227;-74
2022/07/03 05:49:27;;;;;;;3.67;2.67;;;;;;;20.32;61.47;101651.06;4973375;28;20194;-74
2022/07/03 05:51:52;;;;;;;2.40;2.20;;;;;;;20.49;61.50;101649.22;4972698;28;20650;-75
2022/07/03 05:54:18;;;;;;;3.90;2.60;;;;;;;20.60;60.87;101651.75;4973420;28;20267;-75
2022/07/03 05:56:43;;;;;;;2.50;2.30;;;;;;;20.58;60.33;101663.88;4972515;28;20787;-75
2022/07/03 05:59:09;;;;;;;4.03;2.53;;;;;;;20.63;59.96;101678.59;4972922;28;20555;-75
2022/07/03 06:01:34;;;;;;;3.47;2.60;;;;;;;20.49;60.14;101677.84;4973236;28;20247;-74
2022/07/03 06:04:00;;;;;;;2.43;2.23;;;;;;;20.69;59.63;101667.28;4972385;28;20220;-75
2022/07/03 06:06:25;;;;;;;4.37;2.33;;;;;;;20.77;59.45;101668.94;4972878;28;20216;-75
2022/07/03 06:08:51;;;;;;;3.47;2.50;;;;;;;20.93;59.58;101682.72;4972423;28;20247;-75
2022/07/03 06:11:16;;;;;;;3.23;2.63;;;;;;;20.88;59.08;101681.88;4972730;28;20189;-74
2022/07/03 06:13:42;;;;;;;2.27;2.17;;;;;;;20.92;58.05;101681.00;4972141;28;20247;-74
2022/07/03 06:16:07;;;;;;;3.77;2.80;;;;;;;20.92;59.03;101683.59;4971314;28;20202;-74
2022/07/03 06:18:33;;;;;;;2.60;2.40;;;;;;;21.27;58.83;101676.28;4953647;28;20213;-74
2022/07/03 06:20:58;;;;;;;3.43;2.67;;;;;;;21.50;57.84;101680.34;4952241;28;20228;-74
2022/07/03 06:23:24;;;;;;;2.73;2.03;;;;;;;21.35;57.79;101669.25;4953034;29;20216;-75
2022/07/03 06:25:49;;;;;;;3.13;2.40;;;;;;;21.67;58.52;101675.81;4952818;29;20189;-74
2022/07/03 06:28:14;;;;;;;3.20;2.60;;;;;;;21.74;57.67;101676.63;4967912;28;20216;-75
2022/07/03 06:30:40;;;;;;;4.33;2.70;;;;;;;21.84;57.28;101671.25;4955535;28;20193;-74
2022/07/03 06:33:05;;;;;;;3.40;2.60;;;;;;;21.92;56.70;101668.56;4952031;29;20197;-75
2022/07/03 06:35:31;;;;;;;2.43;2.23;;;;;;;22.13;57.20;101669.13;4952911;28;20186;-75
2022/07/03 06:38:01;;;;;;;3.87;2.60;;;;;;;22.29;56.09;101673.22;4952504;28;20288;-76
2022/07/03 06:40:26;;;;;;;2.57;2.37;;;;;;;22.39;56.35;101666.97;4953093;28;20198;-74
2022/07/03 06:42:52;;;;;;;4.07;2.63;;;;;;;22.50;55.90;101660.72;4951437;29;20221;-74
2022/07/03 06:45:19;;;;;;;2.30;2.03;;;;;;;22.50;53.88;101664.22;4953503;28;20221;-75
2022/07/03 06:47:44;;;;;;;6.10;2.40;;;;;;;22.45;52.96;101663.44;4951284;29;20280;-75
2022/07/03 06:50:10;;;;;;;4.73;1.97;;;;;;;22.34;54.35;101665.34;4952970;28;20208;-75
2022/07/03 06:52:35;;;;;;;2.43;2.03;;;;;;;22.21;53.92;101669.00;4952546;29;20233;-75
2022/07/03 06:55:01;;;;;;;2.37;2.23;;;;;;;22.38;53.69;101660.91;4951077;29;20197;-75
2022/07/03 06:57:26;;;;;;;2.17;1.90;;;;;;;22.47;53.05;101655.59;4952197;28;20206;-75
2022/07/03 06:59:52;;;;;;;3.17;1.93;;;;;;;22.77;53.39;101663.75;4952015;28;20196;-75
2022/07/03 07:02:17;;;;;;;3.50;2.57;;;;;;;22.44;54.13;101659.06;4952340;28;20188;-76
2022/07/03 07:04:42;;;;;;;2.87;2.03;;;;;;;22.58;53.54;101656.25;4952452;29;20181;-76
2022/07/03 07:07:08;;;;;;;2.97;2.07;;;;;;;22.86;52.87;101654.88;4952552;29;20209;-75
2022/07/03 07:09:34;;;;;;;3.27;2.00;;;;;;;22.75;52.44;101655.06;4952468;28;20197;-75
2022/07/03 07:11:59;;;;;;;3.10;1.83;;;;;;;23.00;52.87;101650.28;4952714;28;20208;-75
2022/07/03 07:14:24;;;;;;;3.70;2.00;;;;;;;23.35;50.71;101654.00;4985145;28;20238;-74
2022/07/03 07:16:51;;;;;;;3.53;1.97;;;;;;;23.25;50.36;101652.44;4953945;29;20296;-77
2022/07/03 07:19:16;;;;;;;2.80;2.07;;;;;;;23.34;50.92;101654.03;4951366;28;20205;-75
2022/07/03 07:21:42;;;;;;;3.67;2.30;;;;;;;23.39;50.94;101655.63;4947599;28;21402;-75
2022/07/03 07:24:07;;;;;;;3.40;2.03;;;;;;;23.46;51.01;101657.25;4953207;28;20237;-73
2022/07/03 07:26:33;;;;;;;2.90;1.87;;;;;;;23.54;50.72;101659.69;4951072;29;20208;-73
2022/07/03 07:28:58;;;;;;;2.57;2.10;;;;;;;23.64;50.59;101664.72;4951921;29;20604;-73
2022/07/03 07:31:24;;;;;;;5.37;2.33;;;;;;;23.88;50.15;101660.69;4950504;29;20629;-73
2022/07/03 07:33:49;;;;;;;2.30;2.10;;;;;;;24.33;49.98;101659.69;4951190;28;20193;-74
2022/07/03 07:36:14;;;;;;;3.60;2.45;;;;;;;24.57;51.19;101657.34;4951488;29;20217;-76
2022/07/03 07:38:40;;;;;;;5.35;2.10;;;;;;;24.74;48.78;101665.69;4951285;29;20188;-73
2022/07/03 07:41:05;;;;;;;2.17;2.00;;;;;;;24.41;49.80;101663.84;4951329;28;20804;-74
2022/07/03 07:43:31;;;;;;;3.30;2.00;;;;;;;24.67;49.59;101666.72;4951508;28;20252;-75
2022/07/03 07:45:56;;;;;;;2.13;1.80;;;;;;;24.82;49.36;101665.47;4950838;28;20210;-73
2022/07/03 07:48:22;;;;;;;2.72;2.08;;;;;;;25.10;49.22;101667.31;4951592;29;20528;-74
2022/07/03 07:50:49;;;;;;;2.67;1.77;;;;;;;25.15;48.97;101661.97;4965791;28;20192;-77
2022/07/03 07:53:15;;;;;;;2.10;1.90;;;;;;;25.31;48.14;101661.53;4951679;28;20196;-74
2022/07/03 07:55:40;;;;;;;3.53;1.70;;;;;;;25.41;47.73;101660.34;4950530;28;20201;-75
2022/07/03 07:58:06;;;;;;;2.38;1.95;;;;;;;25.42;46.74;101661.22;4951502;28;20294;-75
2022/07/03 08:00:32;;;;;;;3.85;2.13;;;;;;;25.12;48.42;101652.41;4951565;28;20276;-75
2022/07/03 08:05:41;;;;;;;1.70;1.60;;;;;;;25.33;49.42;101657.09;4951363;29;20169;-74
2022/07/03 08:08:07;;;;;;;3.85;2.10;;;;;;;25.29;47.75;101657.22;4951308;29;20251;-74
2022/07/03 08:10:44;;;;;;;2.95;1.88;;;;;;;25.37;49.24;101658.72;4950919;29;20615;-74
2022/07/03 08:13:11;;;;;;;4.25;1.83;;;;;;;25.45;48.29;101659.38;4950956;28;20910;-74
2022/07/03 08:15:37;;;;;;;1.95;1.77;;;;;;;26.01;48.04;101661.19;4982399;28;20590;-74
2022/07/03 08:18:03;;;;;;;2.72;1.73;;;;;;;26.15;46.98;101647.66;4949647;28;20212;-74
2022/07/03 08:20:29;;;;;;;1.73;1.63;;;;;;;25.94;47.41;101662.31;4951575;28;20188;-73
2022/07/03 08:22:54;;;;;;;2.25;2.05;;;;;;;25.39;47.18;101659.56;4952336;28;20596;-73
2022/07/03 08:25:20;;;;;;;2.28;1.80;;;;;;;25.94;46.67;101648.31;4950110;29;20558;-76
2022/07/03 08:27:47;;;;;;;3.55;2.10;;;;;;;26.52;48.01;101645.56;4966535;28;20698;-74
2022/07/03 08:30:17;;;;;;;2.78;1.70;;;;;;;26.86;46.63;101654.91;4951229;28;20196;-74
2022/07/03 08:32:55;;;;;;;2.67;1.85;;;;;;;26.76;46.45;101648.22;4950746;29;20191;-74
2022/07/03 08:35:21;;;;;;;3.67;1.80;;;;;;;26.94;44.91;101642.34;4950855;28;20211;-74
2022/07/03 08:37:47;;;;;;;2.17;1.85;;;;;;;26.96;43.93;101647.53;4951424;28;20220;-75
2022/07/03 08:40:14;;;;;;;1.95;1.73;;;;;;;27.20;46.20;101649.34;4951398;29;20197;-77
2022/07/03 08:42:52;;;;;;;2.92;1.80;;;;;;;27.58;45.02;101648.81;4964919;28;20306;-74
2022/07/03 08:45:19;;;;;;;2.00;1.83;;;;;;;27.57;45.17;101658.47;4952794;28;20193;-74
2022/07/03 08:47:46;;;;;;;3.38;1.75;;;;;;;27.66;43.13;101651.97;4954512;28;20209;-74
2022/07/03 08:50:13;;;;;;;1.83;1.63;;;;;;;27.79;43.90;101651.47;4954828;28;20193;-74
2022/07/03 08:52:40;;;;;;;2.72;1.70;;;;;;;28.06;43.89;101645.16;4954438;28;20828;-74
2022/07/03 08:55:08;;;;;;;2.47;1.90;;;;;;;27.88;42.50;101645.88;4954646;28;20273;-76
2022/07/03 08:57:36;;;;;;;2.30;2.10;;;;;;;27.69;42.64;101646.63;4954630;28;20264;-72
2022/07/03 09:00:05;;;;;;;2.13;1.90;;;;;;;27.92;44.25;101643.97;4954564;28;20202;-74
2022/07/03 09:02:32;;;;;;;2.08;1.88;;;;;;;27.78;42.97;101647.13;4954608;29;20224;-76
2022/07/03 09:04:58;;;;;;;1.95;1.65;;;;;;;27.25;44.06;101645.63;4953139;28;20256;-76
2022/07/03 09:07:26;;;;;;;2.30;2.08;;;;;;;27.91;42.32;101642.28;4951932;28;20307;-77
2022/07/03 09:09:52;;;;;;;2.20;1.60;;;;;;;28.36;41.68;101640.44;4952339;28;20318;-75
2022/07/03 09:12:19;;;;;;;1.95;1.75;;;;;;;28.64;42.28;101644.50;4953534;28;20846;-76
2022/07/03 09:14:44;;;;;;;2.00;1.80;;;;;;;28.86;41.25;101637.41;4954363;28;20276;-76
2022/07/03 09:17:11;;;;;;;4.13;2.10;;;;;;;28.53;41.96;101644.13;4954591;28;20225;-75
2022/07/03 09:19:47;;;;;;;2.10;1.90;;;;;;;27.86;41.43;101650.34;4954506;28;20697;-75
2022/07/03 09:22:24;;;;;;;2.10;1.52;;;;;;;28.66;41.96;101647.09;4953893;28;20181;-76
2022/07/03 09:24:52;;;;;;;1.58;1.48;;;;;;;29.09;41.22;101650.50;4954392;28;20204;-75
2022/07/03 09:27:20;;;;;;;4.13;1.83;;;;;;;29.32;40.08;101652.97;4953595;28;20339;-76
2022/07/03 09:30:08;;;;;;;2.88;1.73;;;;;;;29.44;39.79;101660.34;4957767;28;20665;-76
2022/07/03 09:32:36;;;;;;;2.78;2.10;;;;;;;29.74;40.56;101648.38;4972951;28;20678;-76
2022/07/03 09:35:23;;;;;;;3.08;1.75;;;;;;;29.65;39.16;101646.16;4973838;28;20581;-76
2022/07/03 09:37:48;;;;;;;1.88;1.77;;;;;;;29.71;38.48;101647.69;4973018;28;20204;-74
2022/07/03 09:40:14;;;;;;;2.33;1.50;;;;;;;29.84;39.25;101648.81;4973532;28;20184;-76
2022/07/03 09:42:39;;;;;;;1.77;1.63;;;;;;;29.67;39.31;101644.34;4973369;28;20216;-76
2022/07/03 09:45:05;;;;;;;3.13;1.77;;;;;;;29.44;39.33;101647.16;4972916;28;20279;-75
2022/07/03 09:47:31;;;;;;;1.65;1.50;;;;;;;29.78;38.65;101646.44;4971724;28;20327;-75
2022/07/03 09:49:57;;;;;;;2.35;1.70;;;;;;;30.22;39.36;101636.44;4972796;28;20706;-75
2022/07/03 09:52:28;;;;;;;3.53;2.13;;;;;;;29.92;39.33;101638.72;4973399;28;20191;-76
2022/07/03 09:55:15;;;;;;;2.33;1.85;;;;;;;30.22;39.17;101637.28;4972693;28;20596;-75
2022/07/03 09:57:59;;;;;;;2.28;1.85;;;;;;;30.38;36.90;101634.75;4972939;28;20216;-75
2022/07/03 10:00:26;;;;;;;3.25;1.70;;;;;;;29.71;37.01;101626.53;4973080;28;20661;-75
2022/07/03 10:03:09;;;;;;;4.18;1.63;;;;;;;29.19;38.20;101635.94;4953992;28;20251;-75
2022/07/03 10:05:34;;;;;;;3.72;1.80;;;;;;;28.86;38.08;101641.81;4952485;29;20182;-75
2022/07/03 10:08:04;;;;;;;2.60;1.92;;;;;;;29.80;38.06;101631.41;4953172;29;20220;-75
2022/07/03 10:10:34;;;;;;;2.35;1.45;;;;;;;30.37;37.03;101630.38;4953658;28;20828;-75
2022/07/03 10:13:01;;;;;;;3.35;1.70;;;;;;;30.41;35.42;101635.44;4953082;28;20192;-75
2022/07/03 10:15:29;;;;;;;2.67;1.60;;;;;;;30.39;35.00;101629.41;4953530;28;20181;-75
2022/07/03 10:17:56;;;;;;;3.00;1.80;;;;;;;29.63;36.69;101631.31;4953067;29;20212;-76
2022/07/03 10:20:49;;;;;;;1.85;1.63;;;;;;;30.03;36.87;101631.16;4953686;28;20283;-75
2022/07/03 10:23:21;;;;;;;2.63;1.67;;;;;;;29.39;37.58;101627.97;4945108;28;20290;-75
2022/07/03 10:25:49;;;;;;;1.75;1.50;;;;;;;29.91;37.36;101626.44;4952692;29;20605;-75
2022/07/03 10:28:17;;;;;;;3.63;1.58;;;;;;;30.51;35.45;101626.13;4953654;28;20228;-75
2022/07/03 10:30:44;;;;;;;2.83;1.60;;;;;;;30.77;34.98;101628.34;4952849;28;20185;-75
2022/07/03 10:33:10;;;;;;;3.83;1.48;;;;;;;30.32;35.57;101633.25;4953274;28;20245;-75
2022/07/03 10:35:41;;;;;;;2.38;1.40;;;;;;;31.10;34.59;101626.56;4952584;28;20189;-76
2022/07/03 10:38:35;;;;;;;2.55;1.42;;;;;;;31.09;35.78;101629.28;4953232;28;20224;-75
2022/07/03 10:46:51;;;;;;;3.40;1.60;;;;;;;29.61;37.60;101631.38;4954443;29;20264;-75
2022/07/03 10:49:16;;;;;;;3.20;1.67;;;;;;;29.38;38.32;101633.34;4953664;28;20189;-75
2022/07/03 10:51:45;;;;;;;3.03;1.90;;;;;;;29.69;38.08;101636.31;4952190;28;20654;-75
2022/07/03 10:54:19;;;;;;;3.58;1.50;;;;;;;29.54;39.16;101629.06;4952446;28;20317;-75
2022/07/03 10:57:00;;;;;;;3.65;1.45;;;;;;;29.77;38.13;101635.03;4951507;28;20211;-76
2022/07/03 10:59:31;;;;;;;5.57;1.60;;;;;;;30.32;38.18;101635.91;4950980;28;20189;-75
2022/07/03 11:02:34;;;;;;;1.27;1.17;;;;;;;30.49;37.15;101621.84;4952778;28;20213;-75
2022/07/03 11:05:03;;;;;;;3.55;1.40;;;;;;;30.31;37.11;101622.75;4952122;28;20204;-75
2022/07/03 11:07:33;;;;;;;1.35;1.25;;;;;;;30.38;35.60;101625.00;4951875;28;20209;-75
2022/07/03 11:10:12;;;;;;;1.85;1.40;;;;;;;30.41;36.63;101632.81;4966200;28;20712;-74
2022/07/03 11:12:55;;;;;;;2.75;1.23;;;;;;;30.48;36.37;101623.63;4952506;29;20208;-74
2022/07/03 11:15:27;;;;;;;3.00;1.52;;;;;;;30.63;35.95;101622.00;4951999;29;20240;-74
2022/07/03 11:18:05;;;;;;;2.08;1.20;;;;;;;30.64;34.92;101624.56;4952548;28;20205;-75
2022/07/03 11:20:34;;;;;;;4.70;1.60;;;;;;;30.80;34.40;101627.31;4951707;29;20240;-76
2022/07/03 11:23:06;;;;;;;2.42;1.30;;;;;;;30.85;34.49;101617.34;4952291;28;20213;-75
2022/07/03 11:25:46;;;;;;;2.35;1.10;;;;;;;31.00;35.28;101627.13;4951666;28;20205;-75
2022/07/03 11:28:31;;;;;;;1.42;1.20;;;;;;;31.06;35.02;101621.50;4951462;28;20240;-75
2022/07/03 11:31:13;;;;;;;1.33;1.00;;;;;;;31.10;33.06;101621.28;4936561;28;20236;-75
2022/07/03 11:33:42;;;;;;;1.92;1.23;;;;;;;31.03;33.52;101613.75;4947934;29;20193;-73
2022/07/03 11:36:16;;;;;;;3.47;1.30;;;;;;;31.11;33.07;101617.69;4943443;29;20191;-74
2022/07/03 11:39:06;;;;;;;3.50;1.30;;;;;;;31.19;33.89;101604.03;4975323;28;20196;-74
2022/07/03 11:41:34;;;;;;;2.25;1.20;;;;;;;31.39;32.15;101604.69;4951900;28;20191;-74
2022/07/03 11:44:02;;;;;;;1.67;1.15;;;;;;;31.44;32.60;101602.66;4951066;28;20235;-74
2022/07/03 11:46:29;;;;;;;2.88;1.00;;;;;;;31.59;32.29;101600.97;4951134;28;20232;-76
2022/07/03 11:49:25;;;;;;;2.83;1.90;;;;;;;31.45;32.91;101600.88;4950199;28;20662;-74